Quick Links (Output Below):   Max & Min Temps   /   Climate Reports   /   Zone Forecasts
River Forecasts   /   Forestry Forecasts   /   Aviation Forecasts   /   Radars   /   Features

Terminal Aerodrome Forecast (Hot Springs)

Pick a Site:
Arkadelphia | El Dorado | Fayetteville | Fort Smith | Harrison | Highfill | Hot Springs | Jonesboro
Little Rock | Monticello | Mountain Home | Pine Bluff | Texarkana
 Forecast 

KHOT 310520Z 3106/0106 VRB03KT P6SM SCT025 BKN050
     FM310700 20003KT P6SM VCSH SCT010 BKN025
      TEMPO 3108/3112 5SM BR BKN010 OVC025
     FM311700 23006KT P6SM BKN040
     FM010000 22006KT P6SM VCTS SCT025 BKN040CB=


 Latest METARs (Observations) 
How to Decode METARs
09Z KHOT 310853Z AUTO 29003KT 10SM FEW044 18/16 A3000 RMK AO2 SLP154
         T01780156 58014
         
08Z KHOT 310753Z AUTO 31003KT 10SM BKN049 17/16 A3003 RMK AO2 SLP162
         T01720156
         
07Z KHOT 310653Z AUTO 30003KT 10SM CLR 18/16 A3003 RMK AO2 SLP165
         T01780156
         
06Z KHOT 310553Z AUTO 24004KT 10SM CLR 18/16 A3004 RMK AO2 SLP168
         T01830156 10233 20183 402500094 58013
         
05Z KHOT 310453Z AUTO 23003KT 10SM CLR 19/15 A3006 RMK AO2 SLP174
         T01890150
         
04Z KHOT 310353Z AUTO 23005KT 10SM CLR 19/15 A3007 RMK AO2 SLP178
         T01940150
         
03Z KHOT 310253Z AUTO 24004KT 10SM CLR 19/14 A3008 RMK AO2 SLP182
         T01940144 53004
         
02Z KHOT 310153Z AUTO 00000KT 10SM CLR 20/11 A3008 RMK AO2 SLP181
         T02000111
         
01Z KHOT 310053Z AUTO 15003KT 10SM CLR 22/10 A3006 RMK AO2 SLP176
         T02220100
         
00Z KHOT 302353Z AUTO 19004KT 10SM CLR 23/10 A3007 RMK AO2 SLP179
         T02330100 10250 20211 56018
         
***** Today's Observations (Above) *****


Back to Main Page
http://www.srh.noaa.gov/lzk/qfcst.php

USA.gov is the U.S. government's official web portal to all federal, state and local government web resources and services.